createdAt,value
2018-02-03T00:02:13.367Z,8.27
2018-02-03T00:04:42.434Z,6.33
2018-02-03T00:07:11.080Z,8.70
2018-02-03T00:09:39.388Z,12.27
2018-02-03T00:12:08.184Z,17.00
2018-02-03T00:14:36.479Z,8.97
2018-02-03T00:17:05.124Z,12.27
2018-02-03T00:19:33.515Z,8.73
2018-02-03T00:22:01.843Z,11.93
2018-02-03T00:24:30.148Z,6.70
2018-02-03T00:26:58.475Z,10.40
2018-02-03T00:29:26.559Z,8.20
2018-02-03T00:31:54.994Z,9.60
2018-02-03T00:34:23.643Z,11.17
2018-02-03T00:36:51.951Z,10.20
2018-02-03T00:39:20.314Z,6.90
2018-02-03T00:41:48.688Z,8.30
2018-02-03T00:44:17.000Z,11.10
2018-02-03T00:46:45.311Z,11.40
2018-02-03T00:49:13.646Z,11.83
2018-02-03T00:51:41.951Z,7.80
2018-02-03T00:54:11.630Z,9.95
2018-02-03T00:56:39.939Z,9.73
2018-02-03T00:59:09.007Z,7.63
2018-02-03T01:01:37.527Z,12.83
2018-02-03T01:04:06.955Z,9.48
2018-02-03T01:06:35.266Z,7.57
2018-02-03T01:09:03.567Z,9.30
2018-02-03T01:11:32.563Z,9.63
2018-02-03T01:14:00.863Z,7.60
2018-02-03T01:16:29.167Z,11.60
2018-02-03T01:18:58.281Z,8.10
2018-02-03T01:21:26.585Z,9.30
2018-02-03T01:23:54.899Z,10.98
2018-02-03T01:26:23.667Z,7.07
2018-02-03T01:28:52.032Z,8.98
2018-02-03T01:31:20.341Z,9.73
2018-02-03T01:33:49.118Z,8.30
2018-02-03T01:36:17.424Z,9.63
2018-02-03T01:38:45.748Z,10.80
2018-02-03T01:41:14.168Z,14.02
2018-02-03T01:43:43.352Z,16.60
2018-02-03T01:46:11.713Z,11.38
2018-02-03T01:51:14.025Z,8.70
2018-02-03T01:53:42.851Z,12.43
2018-02-03T01:56:11.244Z,12.33
2018-02-03T01:58:39.555Z,12.23
2018-02-03T02:01:08.646Z,9.07
2018-02-03T02:03:38.339Z,11.50
2018-02-03T02:06:06.671Z,10.40
2018-02-03T02:08:35.381Z,12.40
2018-02-03T02:11:04.008Z,7.90
2018-02-03T02:13:32.327Z,8.20
2018-02-03T02:16:00.640Z,6.73
2018-02-03T02:18:29.554Z,11.97
2018-02-03T02:20:57.862Z,10.47
2018-02-03T02:23:26.176Z,8.90
2018-02-03T02:25:55.243Z,8.20
2018-02-03T02:28:23.648Z,9.23
2018-02-03T02:30:51.956Z,8.02
2018-02-03T02:33:20.835Z,9.60
2018-02-03T02:35:49.285Z,8.02
2018-02-03T02:38:17.615Z,10.35
2018-02-03T02:40:45.951Z,9.85
2018-02-03T02:43:14.260Z,9.40
2018-02-03T02:45:43.351Z,11.10
2018-02-03T02:48:12.456Z,10.50
2018-02-03T02:50:41.535Z,9.00
2018-02-03T02:53:09.884Z,8.15
2018-02-03T02:55:38.230Z,12.32
2018-02-03T02:58:06.551Z,11.38
2018-02-03T03:00:35.159Z,9.60
2018-02-03T03:03:03.474Z,10.40
2018-02-03T03:05:31.855Z,12.25
2018-02-03T03:08:00.481Z,10.10
2018-02-03T03:10:28.787Z,9.60
2018-02-03T03:12:57.859Z,9.18
2018-02-03T03:15:26.240Z,13.50
2018-02-03T03:17:54.730Z,7.87
2018-02-03T03:20:23.067Z,7.25
2018-02-03T03:22:52.102Z,8.02
2018-02-03T03:25:20.447Z,7.43
2018-02-03T03:27:48.760Z,10.05
2018-02-03T03:30:17.936Z,10.93
2018-02-03T03:32:46.270Z,10.15
2018-02-03T03:35:15.333Z,9.40
2018-02-03T03:37:43.631Z,8.68
2018-02-03T03:40:11.935Z,14.47
2018-02-03T03:42:40.558Z,6.82
2018-02-03T03:45:09.141Z,12.80
2018-02-03T03:47:37.475Z,9.30
2018-02-03T03:50:05.841Z,10.73
2018-02-03T03:52:34.144Z,8.90
2018-02-03T03:55:02.453Z,10.33
2018-02-03T03:57:31.067Z,11.67
2018-02-03T03:59:59.375Z,7.03
2018-02-03T04:02:27.672Z,7.40
2018-02-03T04:04:56.028Z,9.50
2018-02-03T04:07:24.343Z,6.83
2018-02-03T04:09:52.651Z,12.03
2018-02-03T04:12:20.994Z,10.88
2018-02-03T04:14:49.307Z,9.03
2018-02-03T04:17:17.619Z,8.53
2018-02-03T04:19:45.948Z,7.77
2018-02-03T04:22:14.300Z,11.83
2018-02-03T04:24:42.619Z,10.90
2018-02-03T04:27:11.684Z,12.13
2018-02-03T04:29:40.013Z,9.80
2018-02-03T04:32:08.316Z,9.30
2018-02-03T04:34:36.693Z,11.57
2018-02-03T04:37:05.011Z,9.37
2018-02-03T04:39:34.076Z,8.43
2018-02-03T04:42:02.517Z,6.80
2018-02-03T04:44:30.831Z,6.70
2018-02-03T04:46:59.141Z,9.17
2018-02-03T04:49:28.251Z,8.60
2018-02-03T04:51:57.339Z,8.73
2018-02-03T04:54:25.680Z,10.55
2018-02-03T04:56:54.111Z,12.03
2018-02-03T04:59:22.421Z,8.43
2018-02-03T05:01:51.201Z,7.60
2018-02-03T05:04:19.571Z,10.87
2018-02-03T05:06:47.887Z,10.60
2018-02-03T05:09:16.203Z,9.88
2018-02-03T05:11:44.536Z,6.37
2018-02-03T05:14:13.661Z,10.87
2018-02-03T05:16:42.736Z,8.45
2018-02-03T05:19:11.079Z,8.50
2018-02-03T05:21:39.374Z,10.00
2018-02-03T05:24:07.675Z,9.77
2018-02-03T05:26:36.035Z,14.73
2018-02-03T05:29:04.347Z,9.90
2018-02-03T05:31:33.412Z,13.03
2018-02-03T05:34:01.744Z,11.83
2018-02-03T05:36:30.055Z,15.23
2018-02-03T05:38:58.896Z,7.80
2018-02-03T05:41:27.972Z,6.70
2018-02-03T05:43:56.279Z,13.07
2018-02-03T05:46:24.631Z,10.83
2018-02-03T05:48:52.943Z,10.45
2018-02-03T05:51:21.252Z,11.00
2018-02-03T05:53:49.899Z,7.63
2018-02-03T05:56:18.220Z,9.20
2018-02-03T05:58:46.527Z,8.50
2018-02-03T06:01:15.157Z,9.00
2018-02-03T06:03:43.459Z,12.60
2018-02-03T06:06:12.040Z,9.95
2018-02-03T06:08:40.559Z,8.43
2018-02-03T06:11:08.863Z,7.65
2018-02-03T06:13:37.171Z,11.43
2018-02-03T06:16:06.235Z,9.70
2018-02-03T06:18:34.549Z,11.25
2018-02-03T06:21:02.851Z,11.00
2018-02-03T06:23:32.007Z,10.05
2018-02-03T06:26:00.324Z,12.15
2018-02-03T06:28:28.628Z,8.33
2018-02-03T06:30:57.644Z,9.90
2018-02-03T06:33:25.956Z,11.15
2018-02-03T06:35:54.295Z,9.60
2018-02-03T06:38:22.647Z,11.73
2018-02-03T06:40:52.331Z,11.57
2018-02-03T06:43:20.652Z,8.60
2018-02-03T06:45:49.003Z,11.15
2018-02-03T06:48:17.312Z,11.70
2018-02-03T06:50:45.616Z,16.33
2018-02-03T06:53:14.448Z,19.20
2018-02-03T06:55:42.756Z,12.05
2018-02-03T06:58:11.082Z,20.05
2018-02-03T07:00:40.228Z,13.18
2018-02-03T07:03:08.539Z,8.93
2018-02-03T07:05:36.860Z,20.70
2018-02-03T07:08:05.208Z,8.47
2018-02-03T07:10:33.511Z,13.63
2018-02-03T07:13:03.111Z,11.38
2018-02-03T07:15:31.455Z,15.30
2018-02-03T07:17:59.770Z,12.15
2018-02-03T07:20:28.863Z,12.05
2018-02-03T07:22:58.220Z,11.50
2018-02-03T07:25:26.523Z,10.00
2018-02-03T07:27:54.845Z,7.72
2018-02-03T07:30:23.198Z,9.07
2018-02-03T07:32:52.288Z,8.23
2018-02-03T07:35:20.600Z,10.13
2018-02-03T07:37:48.947Z,9.97
2018-02-03T07:40:17.255Z,10.10
2018-02-03T07:42:45.559Z,6.93
2018-02-03T07:45:13.896Z,11.12
2018-02-03T07:47:42.989Z,9.47
2018-02-03T07:50:11.600Z,12.70
2018-02-03T07:52:40.479Z,8.67
2018-02-03T07:55:08.847Z,7.30
2018-02-03T07:57:37.936Z,6.93
2018-02-03T08:00:07.012Z,8.30
2018-02-03T08:02:35.443Z,9.33
2018-02-03T08:05:03.735Z,10.03
2018-02-03T08:07:32.036Z,9.57
2018-02-03T08:10:00.361Z,13.07
2018-02-03T08:12:29.213Z,11.83
2018-02-03T08:14:57.800Z,9.57
2018-02-03T08:17:26.099Z,8.87
2018-02-03T08:19:54.395Z,9.80
2018-02-03T08:22:22.751Z,11.50
2018-02-03T08:24:51.826Z,8.30
2018-02-03T08:27:20.172Z,10.80
2018-02-03T08:29:48.512Z,9.70
2018-02-03T08:32:16.856Z,9.53
2018-02-03T08:34:45.151Z,7.83
2018-02-03T08:37:14.267Z,9.83
2018-02-03T08:39:42.583Z,10.00
2018-02-03T08:42:10.887Z,8.23
2018-02-03T08:44:39.235Z,14.73
2018-02-03T08:47:08.078Z,12.03
2018-02-03T08:49:36.643Z,11.80
2018-02-03T08:52:05.031Z,7.47
2018-02-03T08:54:33.328Z,11.30
2018-02-03T08:57:01.635Z,9.27
2018-02-03T08:59:29.983Z,10.07
2018-02-03T09:01:58.283Z,9.87
2018-02-03T09:04:26.592Z,13.40
2018-02-03T09:06:55.012Z,7.83
2018-02-03T09:09:24.087Z,8.73
2018-02-03T09:12:05.167Z,8.20
2018-02-03T09:14:33.460Z,8.43
2018-02-03T09:17:01.764Z,10.50
2018-02-03T09:19:30.104Z,9.20
2018-02-03T09:21:59.167Z,12.27
2018-02-03T09:24:27.468Z,7.10
2018-02-03T09:26:55.916Z,9.60
2018-02-03T09:29:24.224Z,7.83
2018-02-03T09:31:52.519Z,9.87
2018-02-03T09:34:21.636Z,6.20
2018-02-03T09:36:50.026Z,10.23
2018-02-03T09:39:18.328Z,5.57
2018-02-03T09:41:46.651Z,8.03
2018-02-03T09:44:15.716Z,7.63
2018-02-03T09:46:44.020Z,6.83
2018-02-03T09:49:13.403Z,7.23
2018-02-03T09:51:41.705Z,12.13
2018-02-03T09:54:10.010Z,6.73
2018-02-03T09:56:38.663Z,5.77
2018-02-03T09:59:06.999Z,10.10
2018-02-03T10:01:35.317Z,17.73
2018-02-03T10:04:04.512Z,7.30
2018-02-03T10:06:32.811Z,6.43
2018-02-03T10:09:01.110Z,8.80
2018-02-03T10:11:29.474Z,8.10
2018-02-03T10:13:58.507Z,8.50
2018-02-03T10:16:26.803Z,8.67
2018-02-03T10:18:55.437Z,7.80
2018-02-03T10:21:23.736Z,7.73
2018-02-03T10:23:52.031Z,12.70
2018-02-03T10:26:21.003Z,7.37
2018-02-03T10:28:49.311Z,6.17
2018-02-03T10:31:17.612Z,7.30
2018-02-03T10:33:46.274Z,10.53
2018-02-03T10:36:14.575Z,8.83
2018-02-03T10:38:42.893Z,10.87
2018-02-03T10:41:11.234Z,7.63
2018-02-03T10:43:39.528Z,7.70
2018-02-03T10:46:07.833Z,18.93
2018-02-03T10:48:36.163Z,10.90
2018-02-03T10:51:04.880Z,8.70
2018-02-03T10:53:33.243Z,8.53
2018-02-03T10:56:01.547Z,6.80
2018-02-03T10:58:29.928Z,8.47
2018-02-03T11:01:03.675Z,10.40
2018-02-03T11:03:32.256Z,8.13
2018-02-03T11:06:01.247Z,9.00
2018-02-03T11:08:30.259Z,10.37
2018-02-03T11:10:58.555Z,7.90
2018-02-03T11:13:26.880Z,7.50
2018-02-03T11:15:55.008Z,12.50
2018-02-03T11:18:23.356Z,11.47
2018-02-03T11:20:51.940Z,14.07
2018-02-03T11:23:20.292Z,11.83
2018-02-03T11:25:48.634Z,9.40
2018-02-03T11:28:16.926Z,9.70
2018-02-03T11:30:45.462Z,11.33
2018-02-03T11:33:13.792Z,11.20
2018-02-03T11:35:42.099Z,9.50
2018-02-03T11:38:10.735Z,12.47
2018-02-03T11:40:39.670Z,9.40
2018-02-03T11:43:07.974Z,11.10
2018-02-03T11:45:36.939Z,8.23
2018-02-03T11:48:05.245Z,10.27
2018-02-03T11:50:33.547Z,10.13
2018-02-03T11:53:01.871Z,8.70
2018-02-03T11:55:30.172Z,7.80
2018-02-03T11:57:58.469Z,7.80
2018-02-03T12:00:27.187Z,7.40
2018-02-03T12:02:55.500Z,5.80
2018-02-03T12:05:23.824Z,9.83
2018-02-03T12:07:52.185Z,9.33
2018-02-03T12:10:20.547Z,7.20
2018-02-03T12:12:48.928Z,8.20
2018-02-03T12:15:17.284Z,7.50
2018-02-03T12:17:45.352Z,7.83
2018-02-03T12:20:13.658Z,10.53
2018-02-03T12:22:42.392Z,11.53
2018-02-03T12:25:10.835Z,5.37
2018-02-03T12:27:39.146Z,5.90
2018-02-03T12:30:07.746Z,7.17
2018-02-03T12:32:36.480Z,9.33
2018-02-03T12:35:04.845Z,8.37
2018-02-03T12:37:34.323Z,8.97
2018-02-03T12:40:02.635Z,7.27
2018-02-03T12:42:31.387Z,4.60
2018-02-03T12:44:59.734Z,6.20
2018-02-03T12:47:28.031Z,9.10
2018-02-03T12:49:56.343Z,5.80
2018-02-03T12:52:24.683Z,7.90
2018-02-03T12:54:53.000Z,5.13
2018-02-03T12:57:21.956Z,4.60
2018-02-03T12:59:50.296Z,4.63
2018-02-03T13:02:18.606Z,5.33
2018-02-03T13:04:46.927Z,5.03
2018-02-03T13:07:15.304Z,7.90
2018-02-03T13:09:44.385Z,8.50
2018-02-03T13:12:14.083Z,13.03
2018-02-03T13:14:42.434Z,9.17
2018-02-03T13:17:11.000Z,7.50
2018-02-03T13:19:39.730Z,7.57
2018-02-03T13:22:08.088Z,9.80
2018-02-03T13:24:36.496Z,7.70
2018-02-03T13:27:04.797Z,9.73
2018-02-03T13:29:34.467Z,9.10
2018-02-03T13:32:02.780Z,9.87
2018-02-03T13:34:31.368Z,10.47
2018-02-03T13:37:00.223Z,9.90
2018-02-03T13:39:29.371Z,9.17
2018-02-03T13:41:57.682Z,8.20
2018-02-03T13:44:26.019Z,8.03
2018-02-03T13:46:54.319Z,7.60
2018-02-03T13:49:22.615Z,9.60
2018-02-03T13:51:50.975Z,8.80
2018-02-03T13:54:19.968Z,12.13
2018-02-03T13:56:48.455Z,11.33
2018-02-03T13:59:17.088Z,7.03
2018-02-03T14:01:45.985Z,9.80
2018-02-03T14:04:15.071Z,10.23
2018-02-03T14:06:44.655Z,10.53
2018-02-03T14:09:13.587Z,8.60
2018-02-03T14:11:41.959Z,11.97
2018-02-03T14:14:10.255Z,9.07
2018-02-03T14:16:38.788Z,9.07
2018-02-03T14:19:07.143Z,11.80
2018-02-03T14:21:35.435Z,9.87
2018-02-03T14:24:09.178Z,9.80
2018-02-03T14:26:37.479Z,12.13
2018-02-03T14:29:05.780Z,7.00
2018-02-03T14:31:34.310Z,8.77
2018-02-03T14:34:02.607Z,7.27
2018-02-03T14:36:30.915Z,7.17
2018-02-03T14:38:59.335Z,11.37
2018-02-03T14:41:27.653Z,12.87
2018-02-03T14:43:55.955Z,9.87
2018-02-03T14:46:24.336Z,10.73
2018-02-03T14:48:52.607Z,9.80
2018-02-03T14:51:21.291Z,12.90
2018-02-03T14:53:50.000Z,15.43
2018-02-03T14:56:18.299Z,13.97
2018-02-03T14:58:46.652Z,12.43
2018-02-03T15:01:14.957Z,12.00
2018-02-03T15:03:43.260Z,12.80
2018-02-03T15:06:11.611Z,14.80
2018-02-03T15:08:40.683Z,18.20
2018-02-03T15:11:08.985Z,10.50
2018-02-03T15:13:38.100Z,12.00
2018-02-03T15:16:06.411Z,13.87
2018-02-03T15:18:34.723Z,14.20
2018-02-03T15:21:03.319Z,11.60
2018-02-03T15:23:32.403Z,16.60
2018-02-03T15:26:00.712Z,10.20
2018-02-03T15:28:29.141Z,11.40
2018-02-03T15:30:57.439Z,9.37
2018-02-03T15:33:25.735Z,10.83
2018-02-03T15:35:54.943Z,12.27
2018-02-03T15:38:23.243Z,12.10
2018-02-03T15:40:51.536Z,8.10
2018-02-03T15:43:20.119Z,8.63
2018-02-03T15:45:48.419Z,6.00
2018-02-03T15:48:17.012Z,6.30
2018-02-03T15:50:45.339Z,3.60
2018-02-03T15:53:13.640Z,5.93
2018-02-03T15:55:41.940Z,4.70
2018-02-03T15:58:10.303Z,5.40
2018-02-03T16:00:38.624Z,5.50
2018-02-03T16:03:07.691Z,6.10
2018-02-03T16:05:36.071Z,5.40
2018-02-03T16:08:04.351Z,5.83
2018-02-03T16:10:32.655Z,4.73
2018-02-03T16:13:01.248Z,6.53
2018-02-03T16:15:29.617Z,7.23
2018-02-03T16:17:57.927Z,5.70
2018-02-03T16:20:26.263Z,9.90
2018-02-03T16:22:55.323Z,14.77
2018-02-03T16:25:23.627Z,18.27
2018-02-03T16:27:52.243Z,13.20
2018-02-03T16:30:20.561Z,13.40
2018-02-03T16:32:48.872Z,17.10
2018-02-03T16:35:18.393Z,12.60
2018-02-03T16:37:46.692Z,11.23
2018-02-03T16:40:15.027Z,11.53
2018-02-03T16:42:43.351Z,11.10
2018-02-03T16:45:11.655Z,16.20
2018-02-03T16:47:40.008Z,14.40
2018-02-03T16:50:08.308Z,21.33
2018-02-03T16:52:36.647Z,13.77
2018-02-03T16:55:05.268Z,15.70
2018-02-03T16:57:33.575Z,13.63
2018-02-03T17:00:01.894Z,12.77
2018-02-03T17:02:30.592Z,9.40
2018-02-03T17:04:58.903Z,12.20
2018-02-03T17:07:27.211Z,11.27
2018-02-03T17:09:55.899Z,9.33
2018-02-03T17:12:24.199Z,10.80
2018-02-03T17:14:52.540Z,11.93
2018-02-03T17:17:21.139Z,11.17
2018-02-03T17:19:49.530Z,9.43
2018-02-03T17:22:17.852Z,11.00
2018-02-03T17:24:46.195Z,10.27
2018-02-03T17:27:14.515Z,11.63
2018-02-03T17:29:42.824Z,11.20
2018-02-03T17:32:11.176Z,14.10
2018-02-03T17:34:39.479Z,11.40
2018-02-03T17:37:13.416Z,14.97
2018-02-03T17:39:41.728Z,11.12
2018-02-03T17:42:10.031Z,11.95
2018-02-03T17:44:39.387Z,13.70
2018-02-03T17:47:07.755Z,10.23
2018-02-03T17:49:36.104Z,10.20
2018-02-03T17:52:04.464Z,10.77
2018-02-03T17:54:32.949Z,9.47
2018-02-03T17:57:07.071Z,13.00
2018-02-03T17:59:35.391Z,15.35
2018-02-03T18:02:03.708Z,9.82
2018-02-03T18:04:32.248Z,12.63
2018-02-03T18:07:05.348Z,12.17
2018-02-03T18:09:33.751Z,11.93
2018-02-03T18:12:02.385Z,17.13
2018-02-03T18:14:30.697Z,14.43
2018-02-03T18:16:59.048Z,11.23
2018-02-03T18:19:27.399Z,9.15
2018-02-03T18:21:55.702Z,9.00
2018-02-03T18:24:24.055Z,10.95
2018-02-03T18:26:52.363Z,13.93
2018-02-03T18:29:20.680Z,15.40
2018-02-03T18:31:49.039Z,12.27
2018-02-03T18:34:17.343Z,12.60
2018-02-03T18:36:46.413Z,12.80
2018-02-03T18:39:14.896Z,18.23
2018-02-03T18:41:43.205Z,12.50
2018-02-03T18:44:12.275Z,20.87
2018-02-03T18:46:40.619Z,16.40
2018-02-03T18:49:08.980Z,12.27
2018-02-03T18:51:37.289Z,19.80
2018-02-03T18:54:05.851Z,14.67
2018-02-03T18:56:34.155Z,19.40
2018-02-03T18:59:03.075Z,16.40
2018-02-03T19:01:31.957Z,19.00
2018-02-03T19:04:00.287Z,13.83
2018-02-03T19:06:28.600Z,17.98
2018-02-03T19:08:56.964Z,10.00
2018-02-03T19:11:25.276Z,9.00
2018-02-03T19:13:53.587Z,10.10
2018-02-03T19:16:21.942Z,10.80
2018-02-03T19:18:51.007Z,11.70
2018-02-03T19:21:19.316Z,16.20
2018-02-03T19:23:48.440Z,14.10
2018-02-03T19:26:16.735Z,8.03
2018-02-03T19:28:45.085Z,11.07
2018-02-03T19:31:13.883Z,15.17
2018-02-03T19:33:42.233Z,15.80
2018-02-03T19:36:10.588Z,13.60
2018-02-03T19:38:38.946Z,14.90
2018-02-03T19:41:07.251Z,14.03
2018-02-03T19:43:35.556Z,15.60
2018-02-03T19:46:03.963Z,14.97
2018-02-03T19:48:32.267Z,16.70
2018-02-03T19:51:00.617Z,17.30
2018-02-03T19:53:29.005Z,19.00
2018-02-03T19:55:57.303Z,12.10
2018-02-03T19:58:25.603Z,13.43
2018-02-03T20:00:54.002Z,20.33
2018-02-03T20:03:22.383Z,15.67
2018-02-03T20:05:50.447Z,22.77
2018-02-03T20:08:18.816Z,18.90
2018-02-03T20:10:47.983Z,17.70
2018-02-03T20:13:16.283Z,20.47
2018-02-03T20:15:44.699Z,18.27
2018-02-03T20:18:13.016Z,21.37
2018-02-03T20:20:41.320Z,19.13
2018-02-03T20:23:09.674Z,18.00
2018-02-03T20:25:38.028Z,15.37
2018-02-03T20:28:06.382Z,16.50
2018-02-03T20:30:34.768Z,19.70
2018-02-03T20:33:03.075Z,21.15
2018-02-03T20:35:31.389Z,20.47
2018-02-03T20:38:00.037Z,21.07
2018-02-03T20:40:28.349Z,15.02
2018-02-03T20:42:56.680Z,21.83
2018-02-03T20:45:25.122Z,27.43
2018-02-03T20:47:53.485Z,14.20
2018-02-03T20:50:21.862Z,18.40
2018-02-03T20:52:50.139Z,21.53
2018-02-03T20:55:18.456Z,17.23
2018-02-03T20:57:46.770Z,26.73
2018-02-03T21:00:15.126Z,23.90
2018-02-03T21:02:43.440Z,26.40
2018-02-03T21:05:11.743Z,18.37
2018-02-03T21:07:40.116Z,24.50
2018-02-03T21:10:09.249Z,21.40
2018-02-03T21:12:37.602Z,20.27
2018-02-03T21:15:06.270Z,24.27
2018-02-03T21:17:34.576Z,19.30
2018-02-03T21:20:02.940Z,19.37
2018-02-03T21:22:31.292Z,19.97
2018-02-03T21:24:59.650Z,23.50
2018-02-03T21:27:27.952Z,18.67
2018-02-03T21:29:56.308Z,20.50
2018-02-03T21:32:24.617Z,25.80
2018-02-03T21:34:52.969Z,22.80
2018-02-03T21:37:21.307Z,22.10
2018-02-03T21:39:49.607Z,26.30
2018-02-03T21:42:17.943Z,22.20
2018-02-03T21:44:46.300Z,22.30
2018-02-03T21:47:15.382Z,29.10
2018-02-03T21:49:43.776Z,21.07
2018-02-03T21:52:12.731Z,17.43
2018-02-03T21:54:40.795Z,23.60
2018-02-03T21:57:09.232Z,20.43
2018-02-03T21:59:38.424Z,20.93
2018-02-03T22:02:06.857Z,27.33
2018-02-03T22:04:35.163Z,23.23
2018-02-03T22:07:04.559Z,20.83
2018-02-03T22:09:32.940Z,19.70
2018-02-03T22:12:01.261Z,26.87
2018-02-03T22:14:29.610Z,21.27
2018-02-03T22:16:58.304Z,23.37
2018-02-03T22:19:26.840Z,25.27
2018-02-03T22:21:55.468Z,27.70
2018-02-03T22:24:23.775Z,19.87
2018-02-03T22:26:52.231Z,22.77
2018-02-03T22:29:20.864Z,21.17
2018-02-03T22:31:49.184Z,22.00
2018-02-03T22:34:17.518Z,20.67
2018-02-03T22:36:45.983Z,24.73
2018-02-03T22:39:14.442Z,19.08
2018-02-03T22:41:42.750Z,23.57
2018-02-03T22:44:11.451Z,21.37
2018-02-03T22:46:39.763Z,18.73
2018-02-03T22:49:08.071Z,23.23
2018-02-03T22:51:36.756Z,19.90
2018-02-03T22:54:05.203Z,20.77
2018-02-03T22:56:33.783Z,18.93
2018-02-03T22:59:02.380Z,24.30
2018-02-03T23:01:30.691Z,19.87
2018-02-03T23:03:58.995Z,20.90
2018-02-03T23:06:28.588Z,25.37
2018-02-03T23:08:56.901Z,18.43
2018-02-03T23:11:25.317Z,29.40
2018-02-03T23:13:53.679Z,32.83
2018-02-03T23:16:22.763Z,22.98
2018-02-03T23:18:51.068Z,20.23
2018-02-03T23:21:19.695Z,24.20
2018-02-03T23:23:47.995Z,21.43
2018-02-03T23:26:16.304Z,21.02
2018-02-03T23:28:45.436Z,20.73
2018-02-03T23:31:13.800Z,19.37
2018-02-03T23:33:42.358Z,24.93
2018-02-03T23:36:10.851Z,20.73
2018-02-03T23:38:39.164Z,20.60
2018-02-03T23:41:07.471Z,15.53
2018-02-03T23:43:35.700Z,20.73
2018-02-03T23:46:04.011Z,19.52
2018-02-03T23:48:32.184Z,15.57
2018-02-03T23:51:00.939Z,19.87
2018-02-03T23:53:29.255Z,17.60
2018-02-03T23:55:57.567Z,23.67
2018-02-03T23:58:26.049Z,20.23
